Time;durP1;ratioP1;P1;durP2;ratioP2;P2;SDS_P1;SDS_P2;PMS_P1;PMS_P2;Temp;Humidity;BMP_temperature;BMP_pressure;BME280_temperature;BME280_humidity;BME280_pressure;Samples;Min_cycle;Max_cycle;Signal;HPM_P1;HPM_P2
2023/03/03 00:00:44;;;;;;;;;;;;;;;-3.91;61.15;101866.25;1955180;73;20112;-47
2023/03/03 00:03:14;;;;;;;;;;;;;;;-3.94;61.05;101860.97;1955216;73;20142;-46
2023/03/03 00:05:42;;;;;;;;;;;;;;;-3.96;61.29;101857.47;1954958;73;20116;-46
2023/03/03 00:08:11;;;;;;;;;;;;;;;-3.98;61.24;101856.53;1965046;72;20173;-95
2023/03/03 00:10:38;;;;;;;;;;;;;;;-4.01;61.42;101860.69;1978658;72;20114;-47
2023/03/03 00:13:08;;;;;;;;;;;;;;;-4.05;61.82;101853.26;1955244;73;20112;-47
2023/03/03 00:15:36;;;;;;;;;;;;;;;-4.10;61.83;101853.06;1974344;72;20102;-46
2023/03/03 00:18:05;;;;;;;;;;;;;;;-4.13;62.07;101850.78;1990575;72;20133;-49
2023/03/03 00:20:37;;;;;;;;;;;;;;;-4.16;62.65;101850.27;1989101;72;20110;-46
2023/03/03 00:23:15;;;;;;;;;;;;;;;-4.20;62.63;101851.39;1990719;72;20106;-46
2023/03/03 00:25:44;;;;;;;;;;;;;;;-4.23;62.83;101848.69;1990288;72;20098;-48
2023/03/03 00:28:17;;;;;;;;;;;;;;;-4.28;63.13;101841.67;1990564;72;20110;-47
2023/03/03 00:30:44;;;;;;;;;;;;;;;-4.31;63.07;101841.55;1990690;72;20102;-48
2023/03/03 00:33:13;;;;;;;;;;;;;;;-4.35;63.35;101847.39;1990584;72;20106;-48
2023/03/03 00:35:43;;;;;;;;;;;;;;;-4.36;63.28;101844.33;1989811;72;20094;-47
2023/03/03 00:38:12;;;;;;;;;;;;;;;-4.40;64.00;101848.02;1986219;72;20118;-48
2023/03/03 00:40:40;;;;;;;;;;;;;;;-4.43;63.66;101840.17;1985656;72;20145;-47
2023/03/03 00:43:25;;;;;;;;;;;;;;;-4.41;63.43;101847.55;1986455;72;20384;-47
2023/03/03 00:45:54;;;;;;;;;;;;;;;-4.40;63.12;101841.18;1986637;72;20337;-48
2023/03/03 00:48:29;;;;;;;;;;;;;;;-4.39;62.90;101845.52;1986520;72;20405;-51
2023/03/03 00:50:58;;;;;;;;;;;;;;;-4.44;63.31;101840.59;1965278;72;20387;-48
2023/03/03 00:53:27;;;;;;;;;;;;;;;-4.45;63.18;101842.69;1951257;74;20100;-46
2023/03/03 00:55:55;;;;;;;;;;;;;;;-4.45;62.89;101840.11;1951127;74;20159;-49
2023/03/03 00:58:23;;;;;;;;;;;;;;;-4.45;62.93;101845.25;1951217;74;20096;-47
2023/03/03 01:00:52;;;;;;;;;;;;;;;-4.46;63.16;101846.09;1951286;74;20112;-47
2023/03/03 01:03:23;;;;;;;;;;;;;;;-4.50;63.37;101840.33;1951237;73;20142;-46
2023/03/03 01:05:52;;;;;;;;;;;;;;;-4.53;63.41;101844.08;1951358;74;20367;-48
2023/03/03 01:08:21;;;;;;;;;;;;;;;-4.53;63.91;101836.38;1951349;74;20158;-48
2023/03/03 01:10:50;;;;;;;;;;;;;;;-4.55;63.55;101836.72;1951173;74;20112;-46
2023/03/03 01:13:19;;;;;;;;;;;;;;;-4.55;63.65;101831.58;1951220;74;20363;-47
2023/03/03 01:15:47;;;;;;;;;;;;;;;-4.58;63.86;101827.59;1951213;74;20116;-47
2023/03/03 01:18:15;;;;;;;;;;;;;;;-4.60;64.26;101828.81;1951245;74;20142;-46
2023/03/03 01:20:42;;;;;;;;;;;;;;;-4.64;64.41;101817.94;1951241;74;20116;-47
2023/03/03 01:23:11;;;;;;;;;;;;;;;-4.67;64.18;101824.23;1951174;74;20134;-47
2023/03/03 01:25:39;;;;;;;;;;;;;;;-4.69;64.11;101812.60;1951343;74;20168;-48
2023/03/03 01:28:07;;;;;;;;;;;;;;;-4.75;64.59;101814.93;1951235;74;20100;-48
2023/03/03 01:30:35;;;;;;;;;;;;;;;-4.77;64.61;101814.00;1951365;74;20393;-48
2023/03/03 01:33:03;;;;;;;;;;;;;;;-4.81;64.82;101812.13;1951231;74;20112;-47
2023/03/03 01:35:30;;;;;;;;;;;;;;;-4.84;65.10;101801.71;1951150;74;20104;-49
2023/03/03 01:37:58;;;;;;;;;;;;;;;-4.86;65.26;101809.77;1951269;74;20108;-49
2023/03/03 01:40:28;;;;;;;;;;;;;;;-4.88;65.30;101811.40;1955024;72;20108;-48
2023/03/03 01:42:58;;;;;;;;;;;;;;;-4.90;65.40;101806.61;1955336;73;20116;-48
2023/03/03 01:45:30;;;;;;;;;;;;;;;-4.93;65.18;101809.04;1955182;73;20100;-48
2023/03/03 01:48:00;;;;;;;;;;;;;;;-4.94;65.02;101802.13;1955199;73;20386;-49
2023/03/03 01:50:32;;;;;;;;;;;;;;;-4.95;64.99;101802.97;1955166;73;20155;-48
2023/03/03 01:53:03;;;;;;;;;;;;;;;-4.98;64.98;101798.59;1954525;72;20112;-48
2023/03/03 01:55:32;;;;;;;;;;;;;;;-5.01;65.11;101797.59;1955278;73;20367;-48
2023/03/03 01:58:01;;;;;;;;;;;;;;;-5.04;65.14;101799.59;1955189;73;20150;-47
2023/03/03 02:00:29;;;;;;;;;;;;;;;-5.05;65.07;101796.58;1953772;73;20159;-47
2023/03/03 02:02:58;;;;;;;;;;;;;;;-5.08;65.24;101799.02;1955204;73;20780;-48
2023/03/03 02:05:26;;;;;;;;;;;;;;;-5.10;65.11;101789.95;1955203;73;20116;-48
2023/03/03 02:07:54;;;;;;;;;;;;;;;-5.10;65.11;101792.52;1955146;73;20116;-48
2023/03/03 02:10:22;;;;;;;;;;;;;;;-5.10;65.11;101783.53;1955165;73;20143;-48
2023/03/03 02:12:51;;;;;;;;;;;;;;;-5.09;65.13;101786.59;1955277;73;20124;-46
2023/03/03 02:15:20;;;;;;;;;;;;;;;-5.10;65.28;101785.23;1955095;73;20183;-46
2023/03/03 02:17:49;;;;;;;;;;;;;;;-5.09;65.07;101773.74;1955191;73;20163;-46
2023/03/03 02:20:21;;;;;;;;;;;;;;;-5.08;64.80;101779.75;1955186;72;20142;-45
2023/03/03 02:22:57;;;;;;;;;;;;;;;-5.08;65.16;101775.89;1954355;73;20202;-46
2023/03/03 02:25:38;;;;;;;;;;;;;;;-5.12;65.50;101776.17;1955274;73;20370;-45
2023/03/03 02:28:06;;;;;;;;;;;;;;;-5.13;65.85;101778.26;1953989;73;20147;-47
2023/03/03 02:30:35;;;;;;;;;;;;;;;-5.14;65.72;101778.22;1955160;73;20116;-47
2023/03/03 02:33:04;;;;;;;;;;;;;;;-5.13;65.49;101779.54;1955251;73;20390;-46
2023/03/03 02:35:33;;;;;;;;;;;;;;;-5.12;65.51;101777.45;1955199;73;20112;-47
2023/03/03 02:38:02;;;;;;;;;;;;;;;-5.10;65.25;101771.97;1954133;73;20120;-47
2023/03/03 02:40:31;;;;;;;;;;;;;;;-5.08;65.34;101770.76;1961172;71;20202;-47
2023/03/03 02:43:00;;;;;;;;;;;;;;;-5.08;65.21;101767.77;1965212;73;20185;-47
2023/03/03 02:45:28;;;;;;;;;;;;;;;-5.07;65.15;101772.11;1965103;73;20142;-46
2023/03/03 02:47:56;;;;;;;;;;;;;;;-5.05;64.92;101767.91;1965102;73;20116;-46
2023/03/03 02:50:24;;;;;;;;;;;;;;;-5.05;64.76;101770.48;1965142;73;20139;-47
2023/03/03 02:52:52;;;;;;;;;;;;;;;-5.04;64.73;101778.64;1965072;73;20146;-48
2023/03/03 02:55:19;;;;;;;;;;;;;;;-5.05;64.73;101774.33;1965180;73;20190;-51
2023/03/03 02:57:48;;;;;;;;;;;;;;;-5.06;64.83;101776.41;1965208;73;20142;-50
2023/03/03 03:00:16;;;;;;;;;;;;;;;-5.07;64.75;101768.26;1965057;73;20111;-50
2023/03/03 03:02:44;;;;;;;;;;;;;;;-5.05;64.65;101773.46;1965135;73;20119;-52
2023/03/03 03:05:13;;;;;;;;;;;;;;;-5.06;64.77;101770.00;1965116;73;20112;-53
2023/03/03 03:07:40;;;;;;;;;;;;;;;-5.09;64.90;101779.27;1965048;73;20116;-50
2023/03/03 03:10:09;;;;;;;;;;;;;;;-5.14;65.21;101776.52;1965138;73;20135;-47
2023/03/03 03:12:37;;;;;;;;;;;;;;;-5.21;65.82;101777.08;1965225;73;20382;-47
2023/03/03 03:15:08;;;;;;;;;;;;;;;-5.25;65.89;101777.77;1965105;73;20127;-46
2023/03/03 03:17:37;;;;;;;;;;;;;;;-5.28;66.19;101777.62;1965039;73;20112;-46
2023/03/03 03:20:05;;;;;;;;;;;;;;;-5.34;66.13;101770.55;1965124;73;20194;-46
2023/03/03 03:22:33;;;;;;;;;;;;;;;-5.37;66.22;101770.41;1965470;73;20143;-48
2023/03/03 03:25:02;;;;;;;;;;;;;;;-5.42;66.05;101769.36;1965449;73;20111;-50
2023/03/03 03:27:30;;;;;;;;;;;;;;;-5.46;66.05;101763.21;1965422;73;20167;-45
2023/03/03 03:29:58;;;;;;;;;;;;;;;-5.47;65.96;101756.31;1965431;73;20116;-47
2023/03/03 03:32:27;;;;;;;;;;;;;;;-5.47;66.01;101752.88;1965493;73;20193;-47
2023/03/03 03:34:56;;;;;;;;;;;;;;;-5.50;66.05;101760.02;1965522;73;20104;-47
2023/03/03 03:37:24;;;;;;;;;;;;;;;-5.49;65.94;101759.64;1965434;73;20111;-46
2023/03/03 03:39:52;;;;;;;;;;;;;;;-5.49;65.98;101754.50;1966641;73;20120;-46
2023/03/03 03:42:20;;;;;;;;;;;;;;;-5.49;66.14;101746.39;1972407;73;20196;-48
2023/03/03 03:44:49;;;;;;;;;;;;;;;-5.46;65.98;101743.06;1972434;73;20132;-48
2023/03/03 03:47:17;;;;;;;;;;;;;;;-5.46;65.88;101742.68;1972540;73;20366;-47
2023/03/03 03:49:45;;;;;;;;;;;;;;;-5.46;65.91;101745.25;1972470;73;20111;-48
2023/03/03 03:52:13;;;;;;;;;;;;;;;-5.44;65.65;101734.63;1972471;73;20100;-48
2023/03/03 03:54:42;;;;;;;;;;;;;;;-5.41;65.53;101734.29;1972447;73;20120;-48
2023/03/03 03:57:09;;;;;;;;;;;;;;;-5.41;65.55;101728.73;1972320;73;20116;-48
2023/03/03 03:59:37;;;;;;;;;;;;;;;-5.40;65.65;101734.36;1972385;73;20186;-46
2023/03/03 04:02:05;;;;;;;;;;;;;;;-5.44;65.73;101734.63;1972439;73;20112;-47
2023/03/03 04:04:33;;;;;;;;;;;;;;;-5.47;65.68;101729.36;1972451;73;20116;-44
2023/03/03 04:07:00;;;;;;;;;;;;;;;-5.47;65.76;101728.49;1972410;73;20167;-43
2023/03/03 04:09:30;;;;;;;;;;;;;;;-5.48;65.61;101739.17;1972443;73;20107;-44
2023/03/03 04:11:57;;;;;;;;;;;;;;;-5.52;65.75;101739.83;1972345;73;20112;-46
2023/03/03 04:14:26;;;;;;;;;;;;;;;-5.53;66.01;101741.95;1972504;73;20116;-46
2023/03/03 04:16:54;;;;;;;;;;;;;;;-5.52;66.23;101746.66;1972573;73;20111;-44
2023/03/03 04:19:23;;;;;;;;;;;;;;;-5.53;66.28;101734.25;1972472;73;20115;-47
2023/03/03 04:21:51;;;;;;;;;;;;;;;-5.51;66.27;101736.47;1972409;73;20144;-46
2023/03/03 04:24:19;;;;;;;;;;;;;;;-5.49;66.46;101736.13;1972384;73;20115;-46
2023/03/03 04:26:47;;;;;;;;;;;;;;;-5.46;66.62;101733.70;1972782;73;20182;-46
2023/03/03 04:29:15;;;;;;;;;;;;;;;-5.40;66.80;101726.66;1972470;73;20212;-47
2023/03/03 04:31:44;;;;;;;;;;;;;;;-5.24;66.85;101722.63;1972424;73;20092;-48
2023/03/03 04:34:12;;;;;;;;;;;;;;;-5.04;66.72;101724.70;1972230;73;20115;-47
2023/03/03 04:36:41;;;;;;;;;;;;;;;-4.76;66.80;101723.23;1972207;73;20193;-45
2023/03/03 04:39:09;;;;;;;;;;;;;;;-4.43;66.59;101723.20;1972111;73;20202;-45
2023/03/03 04:41:36;;;;;;;;;;;;;;;-4.14;66.56;101724.29;1961011;73;20134;-45
2023/03/03 04:44:04;;;;;;;;;;;;;;;-3.88;66.30;101722.23;1955188;73;20143;-44
2023/03/03 04:46:32;;;;;;;;;;;;;;;-3.67;65.75;101721.27;1955255;73;20171;-45
2023/03/03 04:49:01;;;;;;;;;;;;;;;-3.48;65.52;101715.47;1955204;73;20139;-45
2023/03/03 04:51:28;;;;;;;;;;;;;;;-3.34;65.42;101709.95;1955142;73;20155;-45
2023/03/03 04:53:56;;;;;;;;;;;;;;;-3.23;65.15;101716.72;1955248;73;20602;-45
2023/03/03 04:56:24;;;;;;;;;;;;;;;-3.06;65.00;101711.25;1955275;73;20112;-51
2023/03/03 04:58:52;;;;;;;;;;;;;;;-2.73;64.95;101707.56;1955318;73;20120;-49
2023/03/03 05:01:20;;;;;;;;;;;;;;;-2.34;64.93;101693.72;1955210;73;20147;-48
2023/03/03 05:03:48;;;;;;;;;;;;;;;-2.03;64.62;101699.77;1955247;73;20144;-49
2023/03/03 05:06:17;;;;;;;;;;;;;;;-1.84;64.09;101702.44;1955078;73;20148;-48
2023/03/03 05:08:45;;;;;;;;;;;;;;;-1.58;63.86;101700.53;1955245;73;20150;-51
2023/03/03 05:11:13;;;;;;;;;;;;;;;-1.46;63.56;101700.39;1955252;73;20142;-48
2023/03/03 05:13:41;;;;;;;;;;;;;;;-1.27;63.61;101694.87;1955223;73;20163;-48
2023/03/03 05:16:09;;;;;;;;;;;;;;;-1.02;63.04;101700.63;1955331;73;20113;-48
2023/03/03 05:18:36;;;;;;;;;;;;;;;-0.76;62.46;101701.23;1955356;73;20417;-51
2023/03/03 05:21:04;;;;;;;;;;;;;;;-0.47;62.29;101698.43;1955217;73;20100;-49
2023/03/03 05:23:32;;;;;;;;;;;;;;;-0.11;62.33;101694.84;1955192;73;20109;-51
2023/03/03 05:26:00;;;;;;;;;;;;;;;0.18;61.97;101682.47;1955171;73;20167;-48
2023/03/03 05:28:28;;;;;;;;;;;;;;;0.47;61.32;101682.14;1955160;73;20144;-51
2023/03/03 05:30:55;;;;;;;;;;;;;;;0.74;60.87;101673.97;1955202;73;20112;-46
2023/03/03 05:33:23;;;;;;;;;;;;;;;1.10;60.89;101678.83;1955112;73;20168;-45
2023/03/03 05:35:55;;;;;;;;;;;;;;;1.64;61.22;101678.31;1955209;73;20151;-45
2023/03/03 05:38:24;;;;;;;;;;;;;;;2.34;61.24;101679.07;1955158;73;20344;-46
2023/03/03 05:40:51;;;;;;;;;;;;;;;2.99;61.08;101676.18;1955237;73;20630;-46
2023/03/03 05:43:19;;;;;;;;;;;;;;;3.50;60.69;101676.92;1955166;73;20100;-46
2023/03/03 05:45:47;;;;;;;;;;;;;;;3.55;58.92;101677.37;1955214;73;20393;-47
2023/03/03 05:48:14;;;;;;;;;;;;;;;3.54;58.09;101672.16;1955213;73;20113;-49
2023/03/03 05:50:42;;;;;;;;;;;;;;;3.62;57.95;101670.03;1955176;73;20116;-44
2023/03/03 05:53:10;;;;;;;;;;;;;;;3.91;57.92;101669.30;1955211;73;20112;-46
2023/03/03 05:55:37;;;;;;;;;;;;;;;4.32;58.12;101672.88;1955184;73;20155;-49
2023/03/03 05:58:05;;;;;;;;;;;;;;;4.86;57.92;101667.24;1955141;73;20112;-45
2023/03/03 06:00:33;;;;;;;;;;;;;;;5.26;57.36;101667.64;1955108;73;20147;-45
2023/03/03 06:03:01;;;;;;;;;;;;;;;5.68;57.33;101664.44;1955178;73;20189;-46
2023/03/03 06:05:29;;;;;;;;;;;;;;;6.14;57.08;101662.94;1955193;73;20116;-45
2023/03/03 06:07:56;;;;;;;;;;;;;;;6.53;55.84;101653.11;1955168;73;20112;-44
2023/03/03 06:10:24;;;;;;;;;;;;;;;6.87;56.22;101656.75;1955151;73;20112;-46
2023/03/03 06:12:53;;;;;;;;;;;;;;;6.99;55.31;101650.52;1955126;73;20139;-46
2023/03/03 06:15:24;;;;;;;;;;;;;;;7.18;55.56;101648.16;1955300;73;20441;-47
2023/03/03 06:17:52;;;;;;;;;;;;;;;7.67;55.41;101643.67;1955187;73;20117;-49
2023/03/03 06:20:20;;;;;;;;;;;;;;;7.73;54.47;101639.65;1955180;73;20147;-49
2023/03/03 06:22:47;;;;;;;;;;;;;;;7.97;54.02;101639.33;1955147;73;20100;-50
2023/03/03 06:25:15;;;;;;;;;;;;;;;8.16;52.87;101637.33;1955118;73;20147;-55
2023/03/03 06:27:43;;;;;;;;;;;;;;;8.29;53.26;101641.50;1955152;73;20183;-52
2023/03/03 06:30:11;;;;;;;;;;;;;;;8.58;52.36;101637.59;1955115;73;20155;-52
2023/03/03 06:32:39;;;;;;;;;;;;;;;8.80;52.31;101636.79;1955189;73;20150;-50
2023/03/03 06:35:07;;;;;;;;;;;;;;;8.94;52.17;101633.91;1955222;73;20116;-50
2023/03/03 06:37:35;;;;;;;;;;;;;;;9.03;52.01;101634.59;1955163;73;20116;-50
2023/03/03 06:40:04;;;;;;;;;;;;;;;9.23;51.33;101627.66;1955218;73;20400;-50
2023/03/03 06:42:32;;;;;;;;;;;;;;;9.44;50.43;101626.39;1955316;72;20355;-48
2023/03/03 06:45:00;;;;;;;;;;;;;;;9.78;50.63;101628.77;1955174;73;20116;-51
2023/03/03 06:47:27;;;;;;;;;;;;;;;9.93;50.69;101632.36;1955142;73;20142;-49
2023/03/03 06:49:55;;;;;;;;;;;;;;;10.49;50.25;101624.06;1955138;73;20142;-44
2023/03/03 06:52:24;;;;;;;;;;;;;;;11.30;49.14;101624.17;1955037;73;20516;-47
2023/03/03 06:54:57;;;;;;;;;;;;;;;12.10;48.62;101613.48;1955184;73;20117;-44
2023/03/03 06:57:28;;;;;;;;;;;;;;;12.54;46.65;101608.97;1955139;73;20155;-49
2023/03/03 06:59:58;;;;;;;;;;;;;;;12.67;45.79;101611.62;1955266;73;20375;-49
2023/03/03 07:02:25;;;;;;;;;;;;;;;12.65;44.84;101603.33;1952158;73;20112;-47
2023/03/03 07:04:55;;;;;;;;;;;;;;;12.91;44.48;101598.45;1955084;73;20109;-50
2023/03/03 07:07:24;;;;;;;;;;;;;;;13.12;42.85;101594.20;1955279;73;20391;-47
2023/03/03 07:09:53;;;;;;;;;;;;;;;13.43;41.66;101585.19;1955093;73;20112;-50
2023/03/03 07:12:29;;;;;;;;;;;;;;;13.71;41.26;101594.25;1955132;73;20160;-47
2023/03/03 07:15:15;;;;;;;;;;;;;;;14.10;42.32;101587.83;1955179;73;20120;-48
2023/03/03 07:17:44;;;;;;;;;;;;;;;14.98;41.77;101580.22;1955109;73;20146;-47
2023/03/03 07:20:17;;;;;;;;;;;;;;;15.80;41.53;101574.71;1954448;73;20193;-49
2023/03/03 07:22:45;;;;;;;;;;;;;;;16.48;40.84;101573.21;1954100;73;20113;-46
2023/03/03 07:25:14;;;;;;;;;;;;;;;16.77;40.21;101557.09;1955146;73;20120;-48
2023/03/03 07:27:41;;;;;;;;;;;;;;;17.19;39.55;101559.80;1954361;72;20198;-48
2023/03/03 07:30:11;;;;;;;;;;;;;;;17.46;39.58;101552.56;1955007;73;20183;-46
2023/03/03 07:32:40;;;;;;;;;;;;;;;17.48;39.17;101546.20;1953411;73;20112;-49
2023/03/03 07:35:12;;;;;;;;;;;;;;;17.86;38.98;101541.05;1955114;73;20116;-42
2023/03/03 07:37:41;;;;;;;;;;;;;;;18.10;38.71;101542.30;1948599;73;20142;-43
2023/03/03 07:40:29;;;;;;;;;;;;;;;18.32;39.01;101543.23;1955115;73;20116;-48
2023/03/03 07:42:56;;;;;;;;;;;;;;;18.50;36.65;101533.29;1960056;73;20147;-46
2023/03/03 07:45:31;;;;;;;;;;;;;;;18.71;38.46;101532.95;1964848;73;20152;-46
2023/03/03 07:48:00;;;;;;;;;;;;;;;19.18;37.60;101528.31;1965086;73;20381;-48
2023/03/03 07:50:28;;;;;;;;;;;;;;;19.54;36.99;101522.45;1963061;72;20116;-48
2023/03/03 07:52:57;;;;;;;;;;;;;;;19.55;36.12;101516.17;1965029;73;20138;-46
2023/03/03 07:55:26;;;;;;;;;;;;;;;19.80;35.80;101519.94;1965099;73;20100;-47
2023/03/03 07:57:56;;;;;;;;;;;;;;;19.96;34.57;101521.13;1965090;73;20104;-46
2023/03/03 08:00:25;;;;;;;;;;;;;;;20.00;34.48;101519.47;1965176;73;20146;-46
2023/03/03 08:03:06;;;;;;;;;;;;;;;20.29;34.79;101516.67;1965062;73;20100;-46
2023/03/03 08:05:35;;;;;;;;;;;;;;;20.60;34.63;101515.89;1964098;72;20146;-50
2023/03/03 08:08:10;;;;;;;;;;;;;;;20.85;34.42;101508.88;1965149;73;20138;-50
2023/03/03 08:10:42;;;;;;;;;;;;;;;20.99;33.82;101507.43;1965186;73;20107;-52
2023/03/03 08:13:12;;;;;;;;;;;;;;;21.15;33.46;101499.14;1965212;73;20112;-52
2023/03/03 08:15:39;;;;;;;;;;;;;;;21.10;32.13;101491.45;1964303;73;20142;-51
2023/03/03 08:18:08;;;;;;;;;;;;;;;21.00;30.99;101491.72;1965098;73;20146;-53
2023/03/03 08:20:50;;;;;;;;;;;;;;;20.85;31.29;101484.80;1954570;72;20108;-51
2023/03/03 08:23:19;;;;;;;;;;;;;;;20.97;31.27;101477.20;1964272;73;20146;-53
2023/03/03 08:25:48;;;;;;;;;;;;;;;21.09;31.21;101479.51;1965220;73;20111;-52
2023/03/03 08:28:16;;;;;;;;;;;;;;;21.56;31.19;101474.74;1965372;73;20103;-53
2023/03/03 08:30:44;;;;;;;;;;;;;;;22.06;31.06;101469.23;1965238;73;20523;-53
2023/03/03 08:33:12;;;;;;;;;;;;;;;22.08;30.51;101465.95;1965281;73;20100;-53
2023/03/03 08:35:40;;;;;;;;;;;;;;;22.03;30.34;101457.39;1965218;73;20146;-53
2023/03/03 08:38:08;;;;;;;;;;;;;;;21.79;29.64;101460.95;1965217;73;20111;-52
2023/03/03 08:40:36;;;;;;;;;;;;;;;21.73;29.86;101453.87;1965334;73;20119;-51
2023/03/03 08:43:05;;;;;;;;;;;;;;;21.84;29.89;101452.58;1965198;72;20104;-46
2023/03/03 08:45:33;;;;;;;;;;;;;;;22.24;29.98;101441.47;1965293;73;20370;-47
2023/03/03 08:48:01;;;;;;;;;;;;;;;22.55;29.83;101440.45;1965187;73;20104;-45
2023/03/03 08:50:29;;;;;;;;;;;;;;;22.58;28.72;101436.70;1965175;73;20111;-45
2023/03/03 08:52:57;;;;;;;;;;;;;;;22.66;28.81;101429.72;1965166;73;20100;-48
2023/03/03 08:55:24;;;;;;;;;;;;;;;22.62;28.98;101427.42;1965166;73;20111;-46
2023/03/03 08:57:52;;;;;;;;;;;;;;;22.59;28.96;101421.78;1965265;73;20162;-49
2023/03/03 09:00:20;;;;;;;;;;;;;;;22.88;28.78;101418.12;1965196;73;20112;-48
2023/03/03 09:02:49;;;;;;;;;;;;;;;23.05;28.44;101414.59;1965147;72;20104;-46
2023/03/03 09:05:17;;;;;;;;;;;;;;;23.02;28.35;101412.99;1965265;73;20123;-45
2023/03/03 09:07:46;;;;;;;;;;;;;;;23.03;27.59;101409.81;1965207;73;20116;-45
2023/03/03 09:10:15;;;;;;;;;;;;;;;22.86;27.38;101399.09;1965055;73;20120;-53
2023/03/03 09:12:47;;;;;;;;;;;;;;;22.65;27.84;101395.82;1965295;73;20433;-46
2023/03/03 09:15:22;;;;;;;;;;;;;;;22.65;27.40;101393.14;1965194;73;20103;-46
2023/03/03 09:17:50;;;;;;;;;;;;;;;22.59;27.28;101386.05;1965161;73;20115;-48
2023/03/03 09:20:25;;;;;;;;;;;;;;;22.60;27.34;101383.25;1965142;73;20108;-47
2023/03/03 09:22:54;;;;;;;;;;;;;;;22.80;27.50;101376.78;1964643;72;20147;-49
2023/03/03 09:25:23;;;;;;;;;;;;;;;23.02;27.41;101372.70;1965285;73;20128;-45
2023/03/03 09:27:53;;;;;;;;;;;;;;;23.24;27.62;101369.61;1965119;73;20143;-51
2023/03/03 09:30:28;;;;;;;;;;;;;;;23.27;27.23;101355.44;1965238;73;20112;-51
2023/03/03 09:32:59;;;;;;;;;;;;;;;23.01;27.19;101353.53;1964107;73;20150;-50
2023/03/03 09:35:28;;;;;;;;;;;;;;;22.97;27.22;101350.73;1965188;73;20154;-50
2023/03/03 09:37:56;;;;;;;;;;;;;;;23.13;27.43;101340.98;1960449;71;20138;-46
2023/03/03 09:40:43;;;;;;;;;;;;;;;23.27;26.90;101334.44;1961563;73;20120;-45
2023/03/03 09:43:23;;;;;;;;;;;;;;;23.26;26.78;101326.03;1962100;73;20288;-48
2023/03/03 09:45:49;;;;;;;;;;;;;;;23.48;27.39;101317.86;1964584;72;20163;-45
2023/03/03 09:48:19;;;;;;;;;;;;;;;23.73;27.35;101311.73;1967061;72;20150;-46
2023/03/03 09:51:07;;;;;;;;;;;;;;;23.87;26.83;101310.09;1965148;72;20112;-48
2023/03/03 09:53:43;;;;;;;;;;;;;;;23.87;26.86;101296.64;1965283;73;20100;-47
2023/03/03 09:56:12;;;;;;;;;;;;;;;23.96;26.85;101295.47;1937757;73;20103;-48
2023/03/03 09:58:46;;;;;;;;;;;;;;;23.97;27.01;101286.42;1921911;75;20106;-45
2023/03/03 10:01:24;;;;;;;;;;;;;;;24.12;27.18;101294.48;1921860;75;20102;-47
2023/03/03 10:03:56;;;;;;;;;;;;;;;24.08;26.92;101284.48;1923726;73;20102;-45
2023/03/03 10:06:42;;;;;;;;;;;;;;;23.94;26.94;101283.99;1963918;72;20112;-47
2023/03/03 10:09:29;;;;;;;;;;;;;;;23.95;26.86;101276.30;1965793;73;20142;-44
2023/03/03 10:11:58;;;;;;;;;;;;;;;24.08;27.03;101272.88;1926376;73;20118;-44
2023/03/03 10:14:37;;;;;;;;;;;;;;;24.08;27.03;101262.97;1920714;75;20145;-45
2023/03/03 10:17:06;;;;;;;;;;;;;;;24.08;27.03;101262.12;1932203;73;20153;-45
2023/03/03 10:19:42;;;;;;;;;;;;;;;24.09;26.92;101255.77;1933247;74;20168;-47
2023/03/03 10:22:11;;;;;;;;;;;;;;;24.24;26.81;101259.78;1935096;73;20149;-46
2023/03/03 10:24:46;;;;;;;;;;;;;;;24.01;26.65;101255.08;1972206;73;20142;-46
2023/03/03 10:27:22;;;;;;;;;;;;;;;23.80;26.77;101253.78;1950627;71;20177;-47
2023/03/03 10:30:03;;;;;;;;;;;;;;;23.91;26.73;101250.16;1929318;74;20110;-46
2023/03/03 10:32:41;;;;;;;;;;;;;;;23.82;26.88;101239.71;1932298;73;20376;-47
2023/03/03 10:35:14;;;;;;;;;;;;;;;23.48;27.08;101239.92;1933249;74;20113;-48
2023/03/03 10:38:01;;;;;;;;;;;;;;;23.26;27.53;101234.69;1933110;74;20121;-47
2023/03/03 10:40:36;;;;;;;;;;;;;;;23.22;27.40;101226.50;1932324;74;20114;-46
2023/03/03 10:43:05;;;;;;;;;;;;;;;23.29;27.13;101215.59;1932915;74;20388;-47
2023/03/03 10:45:35;;;;;;;;;;;;;;;23.17;27.10;101212.64;1879911;74;20177;-46
2023/03/03 10:48:07;;;;;;;;;;;;;;;23.08;27.20;101210.23;1928808;74;20122;-47
2023/03/03 10:50:42;;;;;;;;;;;;;;;22.89;26.87;101197.48;1929007;74;20106;-45
2023/03/03 10:53:22;;;;;;;;;;;;;;;22.75;26.98;101198.12;1929119;74;20098;-47
2023/03/03 10:56:09;;;;;;;;;;;;;;;22.92;27.32;101192.67;1929146;74;20145;-47
2023/03/03 10:58:38;;;;;;;;;;;;;;;22.84;26.93;101181.74;1928932;74;20122;-46
2023/03/03 11:01:24;;;;;;;;;;;;;;;22.72;26.52;101178.73;1929485;74;20118;-46
2023/03/03 11:04:03;;;;;;;;;;;;;;;22.86;26.94;101183.81;1944896;73;20146;-45
2023/03/03 11:06:35;;;;;;;;;;;;;;;22.96;26.72;101177.16;1967915;73;20112;-46
2023/03/03 11:09:04;;;;;;;;;;;;;;;22.56;27.00;101176.50;1955169;73;20157;-46
2023/03/03 11:11:43;;;;;;;;;;;;;;;22.28;26.29;101171.19;1928913;74;20118;-45
2023/03/03 11:14:12;;;;;;;;;;;;;;;22.11;26.85;101172.06;1929755;73;20180;-44
2023/03/03 11:16:41;;;;;;;;;;;;;;;22.23;27.14;101172.89;1896064;76;20154;-47
2023/03/03 11:19:28;;;;;;;;;;;;;;;21.93;26.19;101159.65;1895949;75;20116;-50
2023/03/03 11:21:57;;;;;;;;;;;;;;;21.08;26.76;101169.42;1917122;73;20144;-52
2023/03/03 11:24:44;;;;;;;;;;;;;;;20.46;27.60;101158.92;1928978;73;20118;-48
2023/03/03 11:27:19;;;;;;;;;;;;;;;20.20;28.06;101160.35;1960030;73;20112;-52
2023/03/03 11:30:04;;;;;;;;;;;;;;;20.11;28.30;101158.34;1962190;73;20112;-52
2023/03/03 11:32:36;;;;;;;;;;;;;;;19.94;28.68;101155.53;1941013;73;20102;-54
2023/03/03 11:35:21;;;;;;;;;;;;;;;19.78;28.71;101142.44;1909224;74;20157;-51
2023/03/03 11:37:56;;;;;;;;;;;;;;;19.93;28.65;101144.00;1928979;74;20113;-54
2023/03/03 11:40:40;;;;;;;;;;;;;;;20.17;28.33;101137.34;1928483;73;20185;-48
2023/03/03 11:43:13;;;;;;;;;;;;;;;20.41;28.12;101132.50;1927975;74;20149;-47
2023/03/03 11:45:42;;;;;;;;;;;;;;;20.68;28.45;101128.28;1956950;73;20120;-47
2023/03/03 11:48:28;;;;;;;;;;;;;;;20.91;28.55;101128.34;1965406;72;20358;-48
2023/03/03 11:51:00;;;;;;;;;;;;;;;20.90;28.57;101126.66;1945314;73;20124;-46
2023/03/03 11:53:29;;;;;;;;;;;;;;;20.63;28.50;101121.08;1965273;73;20373;-47
2023/03/03 11:55:58;;;;;;;;;;;;;;;19.94;27.27;101123.00;1971228;73;20112;-47
2023/03/03 11:58:28;;;;;;;;;;;;;;;19.11;29.12;101139.50;1952023;71;20106;-47
2023/03/03 12:01:01;;;;;;;;;;;;;;;18.86;29.54;101125.14;1926729;73;20149;-46
2023/03/03 12:03:27;;;;;;;;;;;;;;;18.49;29.86;101122.73;1925542;74;20204;-47
2023/03/03 12:06:00;;;;;;;;;;;;;;;18.29;30.17;101120.04;1926645;74;20373;-48
2023/03/03 12:08:28;;;;;;;;;;;;;;;18.16;30.09;101125.31;1879890;74;20141;-50
2023/03/03 12:11:01;;;;;;;;;;;;;;;17.89;30.05;101123.94;1924733;74;20391;-51
2023/03/03 12:13:39;;;;;;;;;;;;;;;17.68;30.57;101116.33;1933012;73;20148;-49
2023/03/03 12:16:14;;;;;;;;;;;;;;;17.54;30.81;101111.03;1935711;73;20150;-46
2023/03/03 12:18:46;;;;;;;;;;;;;;;17.38;30.71;101112.45;1965278;73;20112;-51
2023/03/03 12:21:24;;;;;;;;;;;;;;;17.25;30.80;101115.01;1940018;73;20157;-47
2023/03/03 12:24:00;;;;;;;;;;;;;;;17.20;30.96;101113.09;1926495;74;20118;-47
2023/03/03 12:26:38;;;;;;;;;;;;;;;17.04;31.19;101107.87;1926514;73;20153;-46
2023/03/03 12:29:24;;;;;;;;;;;;;;;16.80;31.45;101103.48;1926500;74;20122;-47
2023/03/03 12:31:56;;;;;;;;;;;;;;;16.53;31.38;101100.19;1926532;74;20114;-49
2023/03/03 12:34:31;;;;;;;;;;;;;;;16.34;32.02;101104.84;1897397;76;20179;-46
2023/03/03 12:37:04;;;;;;;;;;;;;;;16.18;32.23;101089.78;1896504;75;20120;-44
2023/03/03 12:39:34;;;;;;;;;;;;;;;16.10;32.31;101095.14;1852434;74;20441;-53
2023/03/03 12:42:22;;;;;;;;;;;;;;;15.90;32.61;101093.15;1896674;76;20115;-45
2023/03/03 12:44:51;;;;;;;;;;;;;;;15.69;32.65;101087.18;1903791;74;20148;-45
2023/03/03 12:47:20;;;;;;;;;;;;;;;15.50;33.08;101097.10;1925010;75;20537;-45
2023/03/03 12:50:06;;;;;;;;;;;;;;;15.46;33.16;101095.56;1924571;75;20173;-50
2023/03/03 12:52:52;;;;;;;;;;;;;;;15.35;33.29;101094.33;1949107;72;20193;-55
2023/03/03 12:55:37;;;;;;;;;;;;;;;15.31;33.41;101097.20;1957482;73;20383;-47